Time;durP1;ratioP1;P1;durP2;ratioP2;P2;SDS_P1;SDS_P2;PMS_P1;PMS_P2;Temp;Humidity;BMP_temperature;BMP_pressure;BME280_temperature;BME280_humidity;BME280_pressure;Samples;Min_cycle;Max_cycle;Signal;HPM_P1;HPM_P2
2022/11/20 00:01:20;;;;;;;1.98;1.52;;;;;;;;;;4432921;32;20285;-81
2022/11/20 00:03:47;;;;;;;7.60;1.58;;;;;;;;;;4432639;32;20229;-81
2022/11/20 00:06:17;;;;;;;7.72;1.83;;;;;;;;;;4432906;32;20273;-81
2022/11/20 00:08:45;;;;;;;6.78;2.08;;;;;;;;;;4434961;32;20281;-82
2022/11/20 00:11:13;;;;;;;4.65;1.75;;;;;;;;;;4435834;32;20554;-82
2022/11/20 00:13:40;;;;;;;7.30;1.98;;;;;;;;;;4435245;32;20252;-81
2022/11/20 00:16:10;;;;;;;9.88;2.05;;;;;;;;;;4435610;32;20288;-82
2022/11/20 00:18:38;;;;;;;8.73;2.05;;;;;;;;;;4435684;32;20227;-82
2022/11/20 00:21:06;;;;;;;5.68;1.62;;;;;;;;;;4435997;32;20688;-83
2022/11/20 00:23:34;;;;;;;4.55;1.30;;;;;;;;;;4435621;32;20224;-80
2022/11/20 00:26:05;;;;;;;8.52;2.10;;;;;;;;;;4436033;32;20555;-83
2022/11/20 00:28:32;;;;;;;4.37;1.70;;;;;;;;;;4435261;32;20252;-81
2022/11/20 00:31:03;;;;;;;4.87;1.70;;;;;;;;;;4435410;32;20618;-81
2022/11/20 00:33:30;;;;;;;7.95;2.28;;;;;;;;;;4435441;32;20672;-81
2022/11/20 00:36:01;;;;;;;6.43;1.70;;;;;;;;;;4435212;32;20315;-80
2022/11/20 00:38:28;;;;;;;3.85;1.55;;;;;;;;;;4435812;32;20272;-80
2022/11/20 00:40:58;;;;;;;7.05;1.67;;;;;;;;;;4435335;32;20236;-80
2022/11/20 00:43:25;;;;;;;8.82;1.92;;;;;;;;;;4434860;32;20313;-81
2022/11/20 00:45:52;;;;;;;8.80;1.83;;;;;;;;;;4435527;32;20267;-81
2022/11/20 00:48:19;;;;;;;3.95;1.40;;;;;;;;;;4435031;32;20266;-81
2022/11/20 00:50:46;;;;;;;8.88;2.12;;;;;;;;;;4435349;32;20273;-81
2022/11/20 00:53:12;;;;;;;4.10;1.50;;;;;;;;;;4435334;32;20701;-81
2022/11/20 00:55:41;;;;;;;6.60;1.37;;;;;;;;;;4435116;32;20229;-81
2022/11/20 00:58:09;;;;;;;3.22;1.33;;;;;;;;;;4434864;32;20309;-81
2022/11/20 01:00:35;;;;;;;6.87;1.55;;;;;;;;;;4434865;32;20216;-81
2022/11/20 01:03:02;;;;;;;9.90;1.60;;;;;;;;;;4434887;32;20263;-81
2022/11/20 01:05:29;;;;;;;9.90;1.58;;;;;;;;;;4435284;32;20221;-81
2022/11/20 01:07:56;;;;;;;4.70;1.70;;;;;;;;;;4434473;32;20293;-83
2022/11/20 01:10:25;;;;;;;3.90;1.45;;;;;;;;;;4427569;32;20805;-81
2022/11/20 01:13:36;;;;;;;2.25;1.10;;;;;;;;;;4419443;32;20740;-82
2022/11/20 01:15:40;;;;;;;4.07;1.20;;;;;;;;;;4419138;32;20261;-83
2022/11/20 01:18:06;;;;;;;6.60;2.00;;;;;;;;;;4419280;32;20745;-83
2022/11/20 01:20:35;;;;;;;9.13;1.85;;;;;;;;;;4433209;32;20701;-82
2022/11/20 01:23:02;;;;;;;7.87;1.85;;;;;;;;;;4434689;32;20236;-82
2022/11/20 01:25:29;;;;;;;3.47;1.50;;;;;;;;;;4435379;32;20243;-82
2022/11/20 01:27:56;;;;;;;5.35;1.75;;;;;;;;;;4434492;32;20297;-81
2022/11/20 01:30:23;;;;;;;3.35;1.40;;;;;;;;;;4421219;32;20252;-81
2022/11/20 01:32:51;;;;;;;5.35;1.27;;;;;;;;;;4419099;32;20233;-81
2022/11/20 01:35:18;;;;;;;5.78;1.55;;;;;;;;;;4418959;32;20282;-83
2022/11/20 01:37:44;;;;;;;7.60;1.83;;;;;;;;;;4418943;32;20418;-81
2022/11/20 01:40:12;;;;;;;3.90;1.58;;;;;;;;;;4422600;32;20236;-82
2022/11/20 01:46:00;;;;;;;3.75;1.23;;;;;;;;;;4443984;32;20198;-80
2022/11/20 01:48:34;;;;;;;5.32;1.50;;;;;;;;;;4452084;32;20296;-81
2022/11/20 01:51:02;;;;;;;3.12;1.77;;;;;;;;;;4446054;32;20411;-80
2022/11/20 01:53:32;;;;;;;6.43;1.67;;;;;;;;;;4426532;32;20594;-80
2022/11/20 01:56:02;;;;;;;6.22;1.70;;;;;;;;;;4420146;32;20271;-80
2022/11/20 01:58:31;;;;;;;5.37;1.48;;;;;;;;;;4419332;32;20217;-82
2022/11/20 02:00:58;;;;;;;7.68;1.62;;;;;;;;;;4419328;32;20299;-81
2022/11/20 02:03:25;;;;;;;13.70;1.45;;;;;;;;;;4420094;32;20268;-81
2022/11/20 02:05:58;;;;;;;7.15;1.60;;;;;;;;;;4433977;32;20216;-81
2022/11/20 02:08:25;;;;;;;4.75;1.42;;;;;;;;;;4434010;32;20685;-82
2022/11/20 02:10:52;;;;;;;6.80;1.90;;;;;;;;;;4433885;32;20304;-81
2022/11/20 02:16:04;;;;;;;5.90;1.67;;;;;;;;;;4433633;32;20224;-81
2022/11/20 02:18:31;;;;;;;5.05;1.55;;;;;;;;;;4433988;32;20278;-80
2022/11/20 02:21:04;;;;;;;2.70;1.33;;;;;;;;;;4433706;32;20295;-81
2022/11/20 02:23:37;;;;;;;7.07;1.70;;;;;;;;;;4433822;32;20603;-80
2022/11/20 02:26:10;;;;;;;1.50;1.10;;;;;;;;;;4433716;32;20611;-81
2022/11/20 02:28:36;;;;;;;6.00;1.58;;;;;;;;;;4424263;32;20233;-81
2022/11/20 02:31:03;;;;;;;4.93;2.28;;;;;;;;;;4418630;32;20759;-82
2022/11/20 02:33:30;;;;;;;9.15;2.05;;;;;;;;;;4418488;32;20256;-80
2022/11/20 02:35:58;;;;;;;5.15;1.75;;;;;;;;;;4418263;32;20633;-82
2022/11/20 02:38:25;;;;;;;4.20;1.60;;;;;;;;;;4418734;32;20277;-83
2022/11/20 02:40:52;;;;;;;4.40;1.85;;;;;;;;;;4425459;32;20232;-81
2022/11/20 02:43:20;;;;;;;8.40;1.75;;;;;;;;;;4433056;32;20289;-80
2022/11/20 02:45:48;;;;;;;2.78;1.27;;;;;;;;;;4433771;32;20237;-82
2022/11/20 02:48:15;;;;;;;3.67;1.60;;;;;;;;;;4433265;32;20256;-82
2022/11/20 02:50:42;;;;;;;2.53;1.48;;;;;;;;;;4433251;32;20212;-80
2022/11/20 02:53:09;;;;;;;4.30;2.03;;;;;;;;;;4433248;32;20224;-82
2022/11/20 02:55:37;;;;;;;6.05;1.58;;;;;;;;;;4433557;32;20229;-81
2022/11/20 02:58:03;;;;;;;3.97;1.20;;;;;;;;;;4432778;32;20259;-81
2022/11/20 03:00:32;;;;;;;7.12;1.58;;;;;;;;;;4433202;32;20297;-80
2022/11/20 03:02:58;;;;;;;5.05;1.60;;;;;;;;;;4433268;32;20300;-81
2022/11/20 03:05:25;;;;;;;3.95;1.58;;;;;;;;;;4433139;32;20220;-81
2022/11/20 03:07:52;;;;;;;11.23;1.60;;;;;;;;;;4433023;32;20245;-81
2022/11/20 03:10:18;;;;;;;8.32;2.00;;;;;;;;;;4426249;32;20278;-81
2022/11/20 03:12:46;;;;;;;2.15;1.20;;;;;;;;;;4430047;32;20228;-80
2022/11/20 03:15:13;;;;;;;4.90;1.85;;;;;;;;;;4433535;32;20645;-81
2022/11/20 03:17:41;;;;;;;4.10;1.33;;;;;;;;;;4432983;32;20275;-80
2022/11/20 03:20:10;;;;;;;5.32;1.62;;;;;;;;;;4433539;32;20336;-82
2022/11/20 03:22:37;;;;;;;2.62;1.40;;;;;;;;;;4421348;32;20312;-80
2022/11/20 03:25:05;;;;;;;5.90;2.00;;;;;;;;;;4417818;32;20233;-80
2022/11/20 03:27:34;;;;;;;4.60;1.20;;;;;;;;;;4419741;32;20256;-81
2022/11/20 03:30:01;;;;;;;3.28;1.35;;;;;;;;;;4432936;32;20213;-80
2022/11/20 03:32:28;;;;;;;4.15;1.23;;;;;;;;;;4433032;32;20241;-80
2022/11/20 03:34:58;;;;;;;4.90;1.17;;;;;;;;;;4433125;32;20722;-81
2022/11/20 03:37:24;;;;;;;3.92;1.77;;;;;;;;;;4433057;32;20294;-81
2022/11/20 03:39:51;;;;;;;2.03;1.05;;;;;;;;;;4432977;32;20212;-80
2022/11/20 03:45:02;;;;;;;4.12;1.33;;;;;;;;;;4436201;32;20243;-80
2022/11/20 03:47:29;;;;;;;3.08;1.42;;;;;;;;;;4436050;32;20626;-80
2022/11/20 03:49:57;;;;;;;6.68;1.17;;;;;;;;;;4435927;32;20281;-80
2022/11/20 03:52:24;;;;;;;6.72;1.30;;;;;;;;;;4436227;32;20235;-81
2022/11/20 03:54:50;;;;;;;6.12;1.25;;;;;;;;;;4436160;32;20253;-82
2022/11/20 03:57:17;;;;;;;2.30;1.05;;;;;;;;;;4435578;32;20324;-82
2022/11/20 03:59:44;;;;;;;4.85;1.83;;;;;;;;;;4436221;32;20590;-82
2022/11/20 04:02:10;;;;;;;2.45;1.08;;;;;;;;;;4436038;32;20286;-80
2022/11/20 04:04:37;;;;;;;3.97;1.10;;;;;;;;;;4436068;32;20360;-81
2022/11/20 04:07:05;;;;;;;3.30;1.37;;;;;;;;;;4435591;32;20639;-82
2022/11/20 04:09:32;;;;;;;3.75;1.35;;;;;;;;;;4435764;32;20664;-80
2022/11/20 04:11:59;;;;;;;2.97;1.10;;;;;;;;;;4435941;32;20248;-83
2022/11/20 04:14:26;;;;;;;4.03;1.42;;;;;;;;;;4435664;32;20217;-81
2022/11/20 04:16:52;;;;;;;6.25;1.33;;;;;;;;;;4435692;32;20261;-79
2022/11/20 04:19:19;;;;;;;7.10;1.50;;;;;;;;;;4435871;32;20661;-80
2022/11/20 04:21:46;;;;;;;3.70;1.12;;;;;;;;;;4435442;32;20228;-81
2022/11/20 04:24:14;;;;;;;5.70;1.60;;;;;;;;;;4435908;32;20241;-80
2022/11/20 04:26:41;;;;;;;1.95;1.23;;;;;;;;;;4436010;32;20719;-82
2022/11/20 04:29:12;;;;;;;4.53;1.27;;;;;;;;;;4435148;32;20313;-80
2022/11/20 04:31:39;;;;;;;9.75;1.33;;;;;;;;;;4434325;32;20267;-81
2022/11/20 04:34:08;;;;;;;4.93;1.25;;;;;;;;;;4435576;32;20217;-81
2022/11/20 04:36:35;;;;;;;7.53;1.55;;;;;;;;;;4435458;32;20735;-80
2022/11/20 04:39:06;;;;;;;3.00;0.95;;;;;;;;;;4435393;32;20224;-81
2022/11/20 04:41:36;;;;;;;3.80;1.25;;;;;;;;;;4435351;32;20324;-82
2022/11/20 04:44:04;;;;;;;4.60;1.50;;;;;;;;;;4434941;32;20627;-82
2022/11/20 04:46:33;;;;;;;3.70;1.35;;;;;;;;;;4435299;32;21109;-81
2022/11/20 04:49:00;;;;;;;2.03;1.10;;;;;;;;;;4435104;32;20240;-81
2022/11/20 04:51:27;;;;;;;1.83;1.20;;;;;;;;;;4435664;32;20229;-81
2022/11/20 04:53:54;;;;;;;2.00;1.20;;;;;;;;;;4434131;32;20253;-83
2022/11/20 04:56:21;;;;;;;4.07;1.48;;;;;;;;;;4435203;32;20221;-83
2022/11/20 04:58:50;;;;;;;6.28;1.12;;;;;;;;;;4434963;32;20261;-80
2022/11/20 05:01:18;;;;;;;2.90;1.25;;;;;;;;;;4435000;32;20636;-82
2022/11/20 05:03:47;;;;;;;3.42;1.30;;;;;;;;;;4434643;32;20228;-82
2022/11/20 05:06:16;;;;;;;5.87;1.33;;;;;;;;;;4434940;32;20289;-82
2022/11/20 05:08:43;;;;;;;5.15;1.40;;;;;;;;;;4421421;32;20241;-81
2022/11/20 05:11:11;;;;;;;2.55;1.20;;;;;;;;;;4419557;32;20253;-82
2022/11/20 05:13:39;;;;;;;4.12;1.60;;;;;;;;;;4421408;32;20455;-81
2022/11/20 05:16:09;;;;;;;8.00;2.95;;;;;;;;;;4434692;32;20605;-82
2022/11/20 05:18:38;;;;;;;4.55;1.17;;;;;;;;;;4435071;32;20236;-82
2022/11/20 05:21:06;;;;;;;4.47;1.42;;;;;;;;;;4434784;32;20712;-81
2022/11/20 05:23:33;;;;;;;1.80;1.27;;;;;;;;;;4434947;32;20759;-81
2022/11/20 05:26:00;;;;;;;5.30;1.37;;;;;;;;;;4434971;32;20249;-81
2022/11/20 05:28:28;;;;;;;1.60;1.25;;;;;;;;;;4425663;32;20256;-82
2022/11/20 05:30:55;;;;;;;4.85;1.35;;;;;;;;;;4419411;32;20263;-81
2022/11/20 05:33:24;;;;;;;4.50;1.35;;;;;;;;;;4419107;32;20209;-82
2022/11/20 05:35:51;;;;;;;3.10;1.48;;;;;;;;;;4418739;32;20612;-81
2022/11/20 05:38:18;;;;;;;5.05;1.33;;;;;;;;;;4419301;32;20291;-81
2022/11/20 05:40:44;;;;;;;2.50;1.60;;;;;;;;;;4419158;32;20264;-83
2022/11/20 05:43:12;;;;;;;7.15;1.55;;;;;;;;;;4418911;32;20270;-82
2022/11/20 05:45:39;;;;;;;6.03;3.37;;;;;;;;;;4419982;32;20221;-82
2022/11/20 05:48:06;;;;;;;8.57;4.55;;;;;;;;;;4421628;32;20212;-82
2022/11/20 05:50:34;;;;;;;5.62;2.17;;;;;;;;;;4430711;32;20311;-82
2022/11/20 05:53:01;;;;;;;4.80;1.87;;;;;;;;;;4435752;32;20309;-83
2022/11/20 05:55:28;;;;;;;7.60;1.95;;;;;;;;;;4432500;32;20341;-83
2022/11/20 05:57:56;;;;;;;7.25;2.47;;;;;;;;;;4426686;32;20223;-83
2022/11/20 06:00:23;;;;;;;5.55;2.20;;;;;;;;;;4419453;32;20298;-81
2022/11/20 06:02:50;;;;;;;4.43;2.22;;;;;;;;;;4419559;32;20233;-81
2022/11/20 06:05:17;;;;;;;7.18;2.25;;;;;;;;;;4418698;32;20342;-81
2022/11/20 06:07:45;;;;;;;5.37;2.42;;;;;;;;;;4426028;32;20244;-82
2022/11/20 06:10:12;;;;;;;6.97;2.72;;;;;;;;;;4433825;32;20240;-81
2022/11/20 06:12:39;;;;;;;7.95;2.80;;;;;;;;;;4434084;32;20229;-79
2022/11/20 06:15:07;;;;;;;12.63;6.03;;;;;;;;;;4433892;32;20325;-81
2022/11/20 06:17:35;;;;;;;5.90;3.25;;;;;;;;;;4433885;32;20232;-80
2022/11/20 06:20:02;;;;;;;4.45;3.12;;;;;;;;;;4432515;32;20289;-80
2022/11/20 06:22:29;;;;;;;9.90;3.60;;;;;;;;;;4432323;32;20285;-80
2022/11/20 06:24:57;;;;;;;3.60;2.50;;;;;;;;;;4432124;32;20760;-80
2022/11/20 06:27:24;;;;;;;3.65;2.45;;;;;;;;;;4433714;32;20639;-83
2022/11/20 06:29:50;;;;;;;9.83;3.30;;;;;;;;;;4433563;32;20627;-81
2022/11/20 06:32:17;;;;;;;7.33;1.83;;;;;;;;;;4432626;32;20261;-81
2022/11/20 06:34:46;;;;;;;8.60;2.72;;;;;;;;;;4431738;32;20297;-80
2022/11/20 06:37:13;;;;;;;6.82;3.00;;;;;;;;;;4431457;32;20217;-81
2022/11/20 06:39:40;;;;;;;10.05;3.35;;;;;;;;;;4432310;32;20264;-79
2022/11/20 06:42:08;;;;;;;15.77;3.47;;;;;;;;;;4417624;32;20309;-82
2022/11/20 06:44:35;;;;;;;8.85;3.70;;;;;;;;;;4417713;32;20310;-80
2022/11/20 06:47:01;;;;;;;12.93;4.70;;;;;;;;;;4433277;32;20808;-83
2022/11/20 06:49:28;;;;;;;5.97;3.25;;;;;;;;;;4433453;32;20319;-81
2022/11/20 06:51:55;;;;;;;5.60;1.90;;;;;;;;;;4434010;32;20225;-80
2022/11/20 06:54:22;;;;;;;4.68;1.55;;;;;;;;;;4433437;32;20290;-80
2022/11/20 06:56:49;;;;;;;7.00;1.92;;;;;;;;;;4433183;32;20240;-81
2022/11/20 06:59:17;;;;;;;8.20;2.30;;;;;;;;;;4433421;32;20267;-84
2022/11/20 07:01:44;;;;;;;4.65;1.40;;;;;;;;;;4434028;32;20270;-83
2022/11/20 07:04:10;;;;;;;8.02;2.87;;;;;;;;;;4433633;32;20233;-80
2022/11/20 07:06:37;;;;;;;5.93;3.60;;;;;;;;;;4437930;32;20747;-82
2022/11/20 07:09:04;;;;;;;11.55;5.87;;;;;;;;;;4448655;32;20240;-82
2022/11/20 07:11:31;;;;;;;8.25;2.80;;;;;;;;;;4433888;32;20290;-83
2022/11/20 07:13:58;;;;;;;6.85;3.70;;;;;;;;;;4433402;32;21102;-84
2022/11/20 07:16:27;;;;;;;12.50;4.47;;;;;;;;;;4435635;32;20212;-84
2022/11/20 07:18:54;;;;;;;7.25;2.83;;;;;;;;;;4433547;32;20248;-83
2022/11/20 07:21:21;;;;;;;5.82;2.58;;;;;;;;;;4432999;32;20263;-80
2022/11/20 07:27:10;;;;;;;14.43;6.90;;;;;;;;;;4432327;32;20632;-80
2022/11/20 07:29:36;;;;;;;17.95;7.75;;;;;;;;;;4430255;32;20690;-81
2022/11/20 07:32:05;;;;;;;11.38;5.50;;;;;;;;;;4430936;32;20282;-79
2022/11/20 07:34:33;;;;;;;10.23;2.80;;;;;;;;;;4431392;32;20222;-81
2022/11/20 07:37:00;;;;;;;7.80;2.80;;;;;;;;;;4431003;32;20322;-78
2022/11/20 07:39:26;;;;;;;7.50;2.87;;;;;;;;;;4431635;32;20660;-78
2022/11/20 07:41:53;;;;;;;9.48;3.45;;;;;;;;;;4430832;32;20518;-81
2022/11/20 07:44:20;;;;;;;9.88;2.05;;;;;;;;;;4432560;32;20616;-78
2022/11/20 07:46:48;;;;;;;6.35;2.60;;;;;;;;;;4432061;32;20255;-79
2022/11/20 07:49:16;;;;;;;6.57;2.10;;;;;;;;;;4432851;32;20212;-78
2022/11/20 07:51:43;;;;;;;7.03;2.08;;;;;;;;;;4432925;32;20309;-81
2022/11/20 07:54:10;;;;;;;8.13;3.62;;;;;;;;;;4419073;32;20218;-82
2022/11/20 07:56:37;;;;;;;6.12;2.55;;;;;;;;;;4416227;32;20264;-78
2022/11/20 07:59:04;;;;;;;6.60;2.53;;;;;;;;;;4417501;32;20687;-79
2022/11/20 08:01:31;;;;;;;10.40;3.30;;;;;;;;;;4417608;32;20233;-82
2022/11/20 08:03:58;;;;;;;12.07;6.90;;;;;;;;;;4430812;32;20361;-78
2022/11/20 08:06:26;;;;;;;7.75;3.22;;;;;;;;;;4432702;32;20268;-76
2022/11/20 08:08:53;;;;;;;7.70;4.60;;;;;;;;;;4432677;32;20244;-79
2022/11/20 08:14:12;;;;;;;7.50;4.45;;;;;;;;;;4432623;32;20252;-79
2022/11/20 08:16:39;;;;;;;12.52;5.30;;;;;;;;;;4432924;32;20279;-76
2022/11/20 08:19:06;;;;;;;8.48;3.90;;;;;;;;;;4432634;32;20586;-78
2022/11/20 08:21:35;;;;;;;7.45;3.42;;;;;;;;;;4432391;32;20313;-77
2022/11/20 08:24:02;;;;;;;4.10;2.05;;;;;;;;;;4432482;32;20304;-77
2022/11/20 08:26:29;;;;;;;14.20;8.90;;;;;;;;;;4432233;32;20314;-78
2022/11/20 08:28:56;;;;;;;13.88;8.93;;;;;;;;;;4432470;32;20669;-77
2022/11/20 08:31:24;;;;;;;8.57;6.00;;;;;;;;;;4435478;32;20237;-78
2022/11/20 08:33:51;;;;;;;6.35;3.50;;;;;;;;;;4435318;32;20230;-78
2022/11/20 08:36:18;;;;;;;5.60;2.30;;;;;;;;;;4435048;32;20312;-81
2022/11/20 08:38:49;;;;;;;11.53;4.30;;;;;;;;;;4434893;32;20325;-80
2022/11/20 08:41:26;;;;;;;7.63;1.70;;;;;;;;;;4434466;32;20307;-77
2022/11/20 08:43:55;;;;;;;10.50;5.33;;;;;;;;;;4435289;32;20217;-78
2022/11/20 08:46:23;;;;;;;7.73;2.57;;;;;;;;;;4434831;32;20649;-79
2022/11/20 08:48:49;;;;;;;6.43;2.10;;;;;;;;;;4435419;32;20289;-81
2022/11/20 08:51:19;;;;;;;6.47;3.17;;;;;;;;;;4435209;32;20281;-80
2022/11/20 08:53:48;;;;;;;11.83;4.43;;;;;;;;;;4434827;32;20279;-81
2022/11/20 08:56:16;;;;;;;15.15;4.93;;;;;;;;;;4434608;32;20554;-80
2022/11/20 08:58:44;;;;;;;13.68;7.28;;;;;;;;;;4434658;32;20549;-81
2022/11/20 09:01:11;;;;;;;12.45;8.07;;;;;;;;;;4434928;32;20261;-80
2022/11/20 09:03:37;;;;;;;9.73;5.63;;;;;;;;;;4445706;32;20272;-81
2022/11/20 09:06:06;;;;;;;8.93;5.18;;;;;;;;;;4450144;32;20665;-79
2022/11/20 09:08:36;;;;;;;7.68;4.25;;;;;;;;;;4450315;32;20685;-82
2022/11/20 09:11:03;;;;;;;11.98;4.62;;;;;;;;;;4438113;32;20285;-79
2022/11/20 09:13:32;;;;;;;11.48;4.03;;;;;;;;;;4434578;32;20245;-82
2022/11/20 09:16:01;;;;;;;10.82;4.25;;;;;;;;;;4434829;32;20352;-83
2022/11/20 09:18:31;;;;;;;8.10;3.12;;;;;;;;;;4434976;32;20273;-84
2022/11/20 09:20:58;;;;;;;7.37;4.03;;;;;;;;;;4434810;32;20681;-79
2022/11/20 09:23:25;;;;;;;6.45;3.62;;;;;;;;;;4434478;32;20221;-78
2022/11/20 09:25:55;;;;;;;14.07;5.72;;;;;;;;;;4434330;32;20285;-78
2022/11/20 09:28:22;;;;;;;15.10;6.93;;;;;;;;;;4434597;32;20749;-81
2022/11/20 09:30:50;;;;;;;16.23;5.70;;;;;;;;;;4419336;32;20332;-78
2022/11/20 09:33:16;;;;;;;14.67;5.77;;;;;;;;;;4420895;32;20257;-82
2022/11/20 09:35:44;;;;;;;17.65;5.82;;;;;;;;;;4434420;32;20559;-81
2022/11/20 09:38:14;;;;;;;16.67;5.37;;;;;;;;;;4433916;32;20705;-81
2022/11/20 09:40:46;;;;;;;17.75;5.47;;;;;;;;;;4433332;32;20719;-80
2022/11/20 09:43:19;;;;;;;13.15;5.10;;;;;;;;;;4434598;32;20325;-79
2022/11/20 09:46:03;;;;;;;13.30;5.60;;;;;;;;;;4434120;32;20296;-80
2022/11/20 09:48:53;;;;;;;25.00;6.85;;;;;;;;;;4434593;32;20248;-79
2022/11/20 09:51:29;;;;;;;25.55;7.03;;;;;;;;;;4434232;32;20704;-81
2022/11/20 09:54:11;;;;;;;13.70;5.30;;;;;;;;;;4434161;32;20797;-83
2022/11/20 09:56:43;;;;;;;14.55;5.68;;;;;;;;;;4431921;32;20249;-79
2022/11/20 09:59:21;;;;;;;16.67;6.65;;;;;;;;;;4419553;32;20581;-80
2022/11/20 10:01:49;;;;;;;26.73;6.80;;;;;;;;;;4428652;32;20724;-82
2022/11/20 10:04:18;;;;;;;25.60;6.40;;;;;;;;;;4424509;32;20240;-82
2022/11/20 10:06:52;;;;;;;19.35;6.68;;;;;;;;;;4419360;32;20818;-79
2022/11/20 10:09:26;;;;;;;18.45;7.97;;;;;;;;;;4419776;32;20357;-79
2022/11/20 10:12:06;;;;;;;22.70;6.82;;;;;;;;;;4433558;32;20289;-80
2022/11/20 10:14:46;;;;;;;18.60;4.90;;;;;;;;;;4434068;32;20278;-80
2022/11/20 10:17:22;;;;;;;17.27;6.05;;;;;;;;;;4420194;32;20317;-80
2022/11/20 10:20:03;;;;;;;34.00;15.75;;;;;;;;;;4434597;32;20731;-80
2022/11/20 10:22:42;;;;;;;35.97;20.13;;;;;;;;;;4434296;32;20624;-78
2022/11/20 10:25:15;;;;;;;30.27;14.90;;;;;;;;;;4433779;32;20287;-84
2022/11/20 10:27:56;;;;;;;24.03;12.87;;;;;;;;;;4433918;32;20236;-78
2022/11/20 10:30:25;;;;;;;16.92;5.70;;;;;;;;;;4433774;32;20415;-79
2022/11/20 10:32:57;;;;;;;16.00;9.10;;;;;;;;;;4433758;32;20213;-81
2022/11/20 10:35:28;;;;;;;15.00;9.93;;;;;;;;;;4434068;32;20591;-81
2022/11/20 10:37:59;;;;;;;24.20;12.67;;;;;;;;;;4433592;32;20233;-81
2022/11/20 10:40:32;;;;;;;26.97;19.33;;;;;;;;;;4433381;32;20228;-83
2022/11/20 10:43:02;;;;;;;14.10;8.07;;;;;;;;;;4433550;32;20323;-82
2022/11/20 10:45:39;;;;;;;9.57;4.45;;;;;;;;;;4433671;32;20753;-81
2022/11/20 10:48:17;;;;;;;7.80;4.35;;;;;;;;;;4433806;32;20410;-84
2022/11/20 10:51:05;;;;;;;5.82;2.87;;;;;;;;;;4434075;32;20252;-85
2022/11/20 10:53:46;;;;;;;10.80;3.80;;;;;;;;;;4426471;32;20303;-81
2022/11/20 10:56:20;;;;;;;12.00;4.82;;;;;;;;;;4433086;32;20632;-84
2022/11/20 10:59:00;;;;;;;19.20;10.90;;;;;;;;;;4433334;32;20264;-86
2022/11/20 11:01:27;;;;;;;15.77;8.20;;;;;;;;;;4433415;32;20228;-85
2022/11/20 11:03:57;;;;;;;29.45;14.45;;;;;;;;;;4433827;32;20757;-86
2022/11/20 11:06:30;;;;;;;21.15;11.20;;;;;;;;;;4433205;32;20256;-84
2022/11/20 11:09:01;;;;;;;23.63;13.63;;;;;;;;;;4428977;32;20344;-85
2022/11/20 11:11:30;;;;;;;24.52;15.32;;;;;;;;;;4430682;32;20274;-84
2022/11/20 11:14:06;;;;;;;15.63;6.57;;;;;;;;;;4431501;32;20333;-82
2022/11/20 11:16:33;;;;;;;10.90;4.35;;;;;;;;;;4432878;32;20736;-85
2022/11/20 11:19:14;;;;;;;22.13;5.00;;;;;;;;;;4433162;32;20220;-85
2022/11/20 11:21:47;;;;;;;22.80;11.25;;;;;;;;;;4432735;32;20297;-83
2022/11/20 11:24:23;;;;;;;25.75;13.82;;;;;;;;;;4433214;32;20577;-83
2022/11/20 11:26:58;;;;;;;25.53;12.13;;;;;;;;;;4432775;32;20324;-82
2022/11/20 11:29:26;;;;;;;32.70;13.93;;;;;;;;;;4433587;32;20223;-80
2022/11/20 11:32:04;;;;;;;16.25;10.25;;;;;;;;;;4433355;32;20594;-83
2022/11/20 11:34:32;;;;;;;16.43;9.40;;;;;;;;;;4433902;32;20204;-80
2022/11/20 11:37:01;;;;;;;14.57;8.27;;;;;;;;;;4433883;32;20395;-81
2022/11/20 11:39:29;;;;;;;13.83;4.47;;;;;;;;;;4418284;32;20261;-82
2022/11/20 11:41:56;;;;;;;9.60;4.70;;;;;;;;;;4417395;32;20296;-80
2022/11/20 11:47:20;;;;;;;10.13;5.80;;;;;;;;;;4433152;32;20612;-81
2022/11/20 11:49:48;;;;;;;12.85;5.53;;;;;;;;;;4432630;32;20488;-80
2022/11/20 11:52:19;;;;;;;9.27;4.80;;;;;;;;;;4432755;32;20285;-80
2022/11/20 11:54:51;;;;;;;13.82;6.57;;;;;;;;;;4433260;32;20232;-81
2022/11/20 11:57:27;;;;;;;12.10;6.55;;;;;;;;;;4432387;32;20249;-80
2022/11/20 12:00:02;;;;;;;13.43;6.32;;;;;;;;;;4433477;32;20213;-81
2022/11/20 12:02:36;;;;;;;10.77;5.43;;;;;;;;;;4433072;32;20310;-81
2022/11/20 12:05:15;;;;;;;13.70;3.90;;;;;;;;;;4435238;32;20255;-83
2022/11/20 12:07:44;;;;;;;11.97;4.47;;;;;;;;;;4435595;32;20232;-80
2022/11/20 12:10:19;;;;;;;14.75;4.55;;;;;;;;;;4435206;32;20220;-80
2022/11/20 12:12:51;;;;;;;16.37;5.40;;;;;;;;;;4435766;32;20248;-82
2022/11/20 12:15:27;;;;;;;14.20;6.27;;;;;;;;;;4435915;32;20577;-83
2022/11/20 12:17:53;;;;;;;15.50;8.97;;;;;;;;;;4435773;32;20240;-81
2022/11/20 12:20:25;;;;;;;15.55;8.32;;;;;;;;;;4435121;32;20221;-81
2022/11/20 12:22:59;;;;;;;17.33;7.10;;;;;;;;;;4434459;32;20291;-81
2022/11/20 12:25:29;;;;;;;14.57;5.60;;;;;;;;;;4435005;32;20224;-80
2022/11/20 12:28:27;;;;;;;12.48;5.47;;;;;;;;;;4435474;32;20317;-81
2022/11/20 12:31:14;;;;;;;12.10;5.10;;;;;;;;;;4435493;32;20306;-81
2022/11/20 12:34:09;;;;;;;9.23;4.30;;;;;;;;;;4435500;32;20839;-81
2022/11/20 12:36:46;;;;;;;12.83;5.43;;;;;;;;;;4430399;32;20256;-81
2022/11/20 12:39:42;;;;;;;7.77;4.47;;;;;;;;;;4435357;32;20237;-82
2022/11/20 12:45:52;;;;;;;16.63;7.07;;;;;;;;;;4435247;32;20737;-78
2022/11/20 12:48:39;;;;;;;12.43;7.10;;;;;;;;;;4435501;32;20272;-81
2022/11/20 12:51:24;;;;;;;19.73;8.13;;;;;;;;;;4434042;32;20237;-81
2022/11/20 12:54:03;;;;;;;8.50;5.27;;;;;;;;;;4434699;32;20650;-84
2022/11/20 12:56:40;;;;;;;8.53;4.50;;;;;;;;;;4434934;32;20248;-83
2022/11/20 12:59:25;;;;;;;12.63;3.37;;;;;;;;;;4435363;32;20277;-82
2022/11/20 13:01:56;;;;;;;8.87;3.23;;;;;;;;;;4434900;32;20251;-80
2022/11/20 13:05:03;;;;;;;10.70;2.93;;;;;;;;;;4435502;32;20213;-81
2022/11/20 13:07:31;;;;;;;11.30;3.70;;;;;;;;;;4435410;32;20688;-80
2022/11/20 13:10:01;;;;;;;13.57;3.27;;;;;;;;;;4434586;32;20328;-80
2022/11/20 13:12:35;;;;;;;18.27;4.50;;;;;;;;;;4436957;32;20221;-79
2022/11/20 13:15:11;;;;;;;11.80;3.97;;;;;;;;;;4435326;32;20729;-80
2022/11/20 13:17:43;;;;;;;8.33;3.60;;;;;;;;;;4436667;32;20252;-80
2022/11/20 13:20:15;;;;;;;11.07;3.73;;;;;;;;;;4436473;32;20237;-79
2022/11/20 13:22:48;;;;;;;15.17;5.10;;;;;;;;;;4435635;32;20244;-81
2022/11/20 13:25:29;;;;;;;11.00;4.00;;;;;;;;;;4435146;32;20593;-80
2022/11/20 13:27:57;;;;;;;16.70;4.13;;;;;;;;;;4435487;32;20652;-82
2022/11/20 13:30:24;;;;;;;16.52;5.22;;;;;;;;;;4434773;32;20241;-81
2022/11/20 13:32:59;;;;;;;16.37;6.57;;;;;;;;;;4434835;32;20221;-81
2022/11/20 13:35:31;;;;;;;13.95;5.90;;;;;;;;;;4433994;32;20228;-78
2022/11/20 13:38:04;;;;;;;13.67;5.13;;;;;;;;;;4434099;32;20570;-79
2022/11/20 13:40:32;;;;;;;29.20;5.87;;;;;;;;;;4433338;32;20647;-79
2022/11/20 13:43:11;;;;;;;18.52;5.95;;;;;;;;;;4434604;32;20321;-81
2022/11/20 13:45:38;;;;;;;19.90;6.53;;;;;;;;;;4434564;32;20677;-79
2022/11/20 13:48:19;;;;;;;23.65;4.70;;;;;;;;;;4434700;32;20664;-78
2022/11/20 13:50:56;;;;;;;25.95;4.43;;;;;;;;;;4434661;32;20233;-83
2022/11/20 13:53:42;;;;;;;26.73;3.67;;;;;;;;;;4434309;32;20243;-81
2022/11/20 13:56:17;;;;;;;15.60;5.05;;;;;;;;;;4433427;32;20268;-78
2022/11/20 13:58:56;;;;;;;18.60;5.20;;;;;;;;;;4434175;32;20240;-79
2022/11/20 14:01:24;;;;;;;25.77;6.40;;;;;;;;;;4442637;32;20776;-81
2022/11/20 14:03:52;;;;;;;20.67;6.73;;;;;;;;;;4446936;32;20217;-78
2022/11/20 14:06:27;;;;;;;27.48;6.32;;;;;;;;;;4444527;32;20307;-83
2022/11/20 14:08:53;;;;;;;21.73;5.23;;;;;;;;;;4446182;32;20267;-91
2022/11/20 14:11:24;;;;;;;19.85;5.57;;;;;;;;;;4438457;32;20628;-80
2022/11/20 14:13:56;;;;;;;29.83;7.75;;;;;;;;;;4434481;32;20262;-80
2022/11/20 14:16:24;;;;;;;30.42;11.55;;;;;;;;;;4433901;32;20616;-79
2022/11/20 14:18:51;;;;;;;31.52;8.75;;;;;;;;;;4433414;32;20265;-87
2022/11/20 14:21:24;;;;;;;24.98;5.00;;;;;;;;;;4434117;32;20237;-80
2022/11/20 14:23:54;;;;;;;28.02;5.25;;;;;;;;;;4433957;32;20213;-81
2022/11/20 14:26:22;;;;;;;20.23;5.28;;;;;;;;;;4433900;32;20260;-83
2022/11/20 14:28:52;;;;;;;19.23;5.45;;;;;;;;;;4434022;32;20572;-79
2022/11/20 14:31:24;;;;;;;23.05;5.95;;;;;;;;;;4433880;32;20255;-78
2022/11/20 14:33:52;;;;;;;26.25;5.20;;;;;;;;;;4434236;32;20255;-79
2022/11/20 14:36:22;;;;;;;24.80;7.05;;;;;;;;;;4436396;32;20611;-82
2022/11/20 14:38:49;;;;;;;22.40;4.72;;;;;;;;;;4448297;32;20259;-79
2022/11/20 14:41:19;;;;;;;23.27;11.20;;;;;;;;;;4448564;32;20740;-89
2022/11/20 14:43:51;;;;;;;27.42;9.90;;;;;;;;;;4449560;32;20265;-81
2022/11/20 14:46:18;;;;;;;22.40;9.65;;;;;;;;;;4449078;32;20232;-80
2022/11/20 14:48:48;;;;;;;27.45;9.85;;;;;;;;;;4449451;32;20248;-80
2022/11/20 14:51:30;;;;;;;25.33;10.48;;;;;;;;;;4449139;32;20232;-83
2022/11/20 14:53:57;;;;;;;30.58;12.52;;;;;;;;;;4434522;32;20297;-81
2022/11/20 14:56:24;;;;;;;27.10;12.87;;;;;;;;;;4433716;32;20232;-79
2022/11/20 14:58:59;;;;;;;22.47;10.03;;;;;;;;;;4433534;32;20313;-84
2022/11/20 15:01:31;;;;;;;81.12;46.83;;;;;;;;;;4433524;32;20272;-80
2022/11/20 15:04:02;;;;;;;76.72;43.28;;;;;;;;;;4433812;32;20217;-81
2022/11/20 15:06:31;;;;;;;40.27;16.33;;;;;;;;;;4433600;32;20684;-85
2022/11/20 15:08:58;;;;;;;23.83;10.30;;;;;;;;;;4432787;32;20232;-87
2022/11/20 15:11:30;;;;;;;22.17;9.75;;;;;;;;;;4432971;32;20254;-88
2022/11/20 15:13:59;;;;;;;17.17;14.07;;;;;;;;;;4433581;32;20213;-85